Time;durP1;ratioP1;P1;durP2;ratioP2;P2;SDS_P1;SDS_P2;PMS_P1;PMS_P2;Temp;Humidity;BMP_temperature;BMP_pressure;BME280_temperature;BME280_humidity;BME280_pressure;Samples;Min_cycle;Max_cycle;Signal;HPM_P1;HPM_P2
2021/04/24 00:01:58;;;;;;;15.80;6.43;;;7.60;66.30;;;;;;5012425;28;20493;-73
2021/04/24 00:04:24;;;;;;;16.05;6.07;;;7.50;66.60;;;;;;5012248;28;20022;-73
2021/04/24 00:06:50;;;;;;;18.90;7.60;;;7.20;67.10;;;;;;5012167;28;20248;-73
2021/04/24 00:09:16;;;;;;;9.07;5.30;;;7.10;67.60;;;;;;5012230;28;20080;-73
2021/04/24 00:11:42;;;;;;;19.50;6.32;;;7.10;67.60;;;;;;5027471;28;20026;-73
2021/04/24 00:14:07;;;;;;;11.30;5.13;;;7.00;67.80;;;;;;5012220;28;20026;-73
2021/04/24 00:16:33;;;;;;;14.40;7.15;;;7.10;68.10;;;;;;5012016;28;20041;-73
2021/04/24 00:18:59;;;;;;;16.35;6.05;;;7.30;67.30;;;;;;5012195;28;20058;-73
2021/04/24 00:21:25;;;;;;;15.43;5.95;;;7.50;66.70;;;;;;5011928;28;20034;-73
2021/04/24 00:23:51;;;;;;;21.20;6.68;;;7.50;66.10;;;;;;5012000;28;20503;-73
2021/04/24 00:26:16;;;;;;;19.15;5.97;;;7.70;66.00;;;;;;5011945;28;20114;-73
2021/04/24 00:28:42;;;;;;;11.45;6.10;;;7.70;65.50;;;;;;5012049;28;20040;-73
2021/04/24 00:31:08;;;;;;;13.80;5.47;;;7.40;65.90;;;;;;5012072;28;20053;-73
2021/04/24 00:33:34;;;;;;;16.33;6.18;;;7.30;66.70;;;;;;5012012;28;20080;-73
2021/04/24 00:36:00;;;;;;;15.07;5.78;;;7.10;68.00;;;;;;5011920;28;20021;-72
2021/04/24 00:38:26;;;;;;;9.98;5.47;;;6.90;67.80;;;;;;5012201;28;20030;-72
2021/04/24 00:40:53;;;;;;;12.23;7.15;;;6.70;68.40;;;;;;5015925;28;20482;-73
2021/04/24 00:43:19;;;;;;;19.10;6.47;;;6.60;68.70;;;;;;5015845;28;20076;-73
2021/04/24 00:45:45;;;;;;;18.15;6.93;;;6.50;69.20;;;;;;5030981;28;20421;-73
2021/04/24 00:48:12;;;;;;;14.25;6.47;;;6.60;69.30;;;;;;5015897;28;20345;-73
2021/04/24 00:50:40;;;;;;;18.42;6.40;;;6.70;68.80;;;;;;5015577;28;20033;-73
2021/04/24 00:53:11;;;;;;;15.00;5.97;;;6.80;68.40;;;;;;5015901;28;20455;-73
2021/04/24 00:55:38;;;;;;;11.52;6.35;;;6.80;68.50;;;;;;5015591;28;20025;-73
2021/04/24 00:58:07;;;;;;;13.30;5.93;;;6.80;68.10;;;;;;5015582;28;20033;-73
2021/04/24 01:00:33;;;;;;;15.02;6.03;;;6.70;68.40;;;;;;5015507;28;20072;-73
2021/04/24 01:02:58;;;;;;;15.55;7.30;;;6.70;68.80;;;;;;5015456;28;20042;-73
2021/04/24 01:05:36;;;;;;;14.82;6.70;;;6.80;68.60;;;;;;5015495;28;20034;-73
2021/04/24 01:08:04;;;;;;;12.95;5.70;;;6.90;68.00;;;;;;5015403;28;20018;-73
2021/04/24 01:10:33;;;;;;;17.83;6.50;;;6.80;67.90;;;;;;5015351;28;20506;-73
2021/04/24 01:12:59;;;;;;;16.90;6.05;;;6.60;68.30;;;;;;5015341;28;20497;-73
2021/04/24 01:15:25;;;;;;;16.88;6.40;;;6.40;68.70;;;;;;5015214;28;20040;-73
2021/04/24 01:17:51;;;;;;;16.38;6.00;;;6.40;69.10;;;;;;5015232;28;20076;-73
2021/04/24 01:20:18;;;;;;;10.13;6.13;;;6.40;69.10;;;;;;5015244;28;20030;-73
2021/04/24 01:22:46;;;;;;;13.88;6.22;;;6.50;69.30;;;;;;5015026;28;20022;-73
2021/04/24 01:25:18;;;;;;;13.00;5.32;;;6.60;69.10;;;;;;5015025;28;20030;-73
2021/04/24 01:27:56;;;;;;;14.15;5.90;;;6.70;68.20;;;;;;5014995;28;20028;-72
2021/04/24 01:30:25;;;;;;;12.43;6.03;;;6.80;67.90;;;;;;5015127;28;20437;-73
2021/04/24 01:32:52;;;;;;;15.18;5.95;;;6.80;67.60;;;;;;5014981;28;20069;-73
2021/04/24 01:35:29;;;;;;;12.75;6.20;;;6.80;67.60;;;;;;5014917;28;20072;-73
2021/04/24 01:37:55;;;;;;;12.70;5.60;;;6.70;68.00;;;;;;5013497;28;20026;-72
2021/04/24 01:40:22;;;;;;;18.70;6.53;;;6.70;68.20;;;;;;5015043;28;20037;-73
2021/04/24 01:42:48;;;;;;;14.32;5.88;;;6.80;67.90;;;;;;5014778;28;20052;-73
2021/04/24 01:45:16;;;;;;;14.35;6.05;;;7.00;68.00;;;;;;5014680;28;20534;-73
2021/04/24 01:47:43;;;;;;;15.20;5.45;;;7.10;67.30;;;;;;5014523;28;20462;-73
2021/04/24 01:50:12;;;;;;;13.85;5.13;;;7.10;66.60;;;;;;5014267;28;20172;-73
2021/04/24 01:52:38;;;;;;;17.38;6.55;;;7.10;67.10;;;;;;5014526;28;20560;-73
2021/04/24 01:55:08;;;;;;;12.35;6.15;;;7.00;67.20;;;;;;5014601;28;20026;-73
2021/04/24 01:57:34;;;;;;;11.55;5.93;;;6.90;67.40;;;;;;5014398;28;20026;-73
2021/04/24 01:59:59;;;;;;;19.63;6.13;;;7.00;68.00;;;;;;5029993;28;20486;-73
2021/04/24 02:02:25;;;;;;;13.35;5.57;;;7.00;67.40;;;;;;5014420;28;20115;-73
2021/04/24 02:04:52;;;;;;;9.88;6.15;;;6.90;67.50;;;;;;5014124;28;20026;-73
2021/04/24 02:07:18;;;;;;;17.50;6.00;;;6.90;67.50;;;;;;5014168;28;20065;-73
2021/04/24 02:09:44;;;;;;;13.48;6.10;;;6.80;67.90;;;;;;5014376;28;20054;-73
2021/04/24 02:12:12;;;;;;;12.38;4.68;;;6.90;68.70;;;;;;5014215;28;20026;-73
2021/04/24 02:14:46;;;;;;;13.45;6.32;;;7.00;67.80;;;;;;5014246;28;20033;-73
2021/04/24 02:17:22;;;;;;;15.35;5.40;;;7.10;67.50;;;;;;5013987;28;20061;-73
2021/04/24 02:19:49;;;;;;;12.50;5.30;;;7.10;68.20;;;;;;5014030;28;20441;-73
2021/04/24 02:22:15;;;;;;;13.38;5.25;;;7.10;66.90;;;;;;5013977;28;20053;-73
2021/04/24 02:25:02;;;;;;;14.57;5.53;;;7.10;67.20;;;;;;5014320;28;20481;-73
2021/04/24 02:27:29;;;;;;;12.10;6.07;;;7.20;66.80;;;;;;5013736;28;20114;-73
2021/04/24 02:29:55;;;;;;;12.27;5.13;;;7.20;66.20;;;;;;5013882;28;20382;-73
2021/04/24 02:32:25;;;;;;;12.00;5.20;;;7.00;66.40;;;;;;5013856;28;20389;-73
2021/04/24 02:34:51;;;;;;;15.90;5.32;;;6.60;67.80;;;;;;5014137;28;20018;-73
2021/04/24 02:37:19;;;;;;;15.02;5.72;;;6.40;68.80;;;;;;5013661;28;20029;-73
2021/04/24 02:39:48;;;;;;;17.67;6.05;;;6.40;69.50;;;;;;5013662;28;20061;-73
2021/04/24 02:42:18;;;;;;;12.68;4.90;;;6.50;69.10;;;;;;5013666;28;20026;-73
2021/04/24 02:44:44;;;;;;;13.25;5.55;;;6.50;69.00;;;;;;5013752;28;20121;-73
2021/04/24 02:47:11;;;;;;;12.82;6.13;;;6.40;68.90;;;;;;5013499;28;20122;-72
2021/04/24 02:49:37;;;;;;;14.27;5.47;;;6.30;69.20;;;;;;5013481;28;20038;-73
2021/04/24 02:52:05;;;;;;;17.27;5.63;;;6.20;69.50;;;;;;5013426;28;20448;-73
2021/04/24 02:54:31;;;;;;;16.13;5.45;;;6.20;69.80;;;;;;5013314;28;20548;-73
2021/04/24 02:56:57;;;;;;;15.70;5.40;;;6.20;70.10;;;;;;5013237;28;20033;-73
2021/04/24 02:59:23;;;;;;;14.88;6.47;;;6.10;69.90;;;;;;5013518;28;20061;-73
2021/04/24 03:01:50;;;;;;;16.55;7.50;;;6.20;70.20;;;;;;5012682;28;20054;-73
2021/04/24 03:04:16;;;;;;;11.35;5.95;;;6.30;70.10;;;;;;5013215;28;20084;-73
2021/04/24 03:06:43;;;;;;;11.88;5.50;;;6.60;69.20;;;;;;5013087;28;20506;-73
2021/04/24 03:09:09;;;;;;;14.85;6.32;;;6.60;68.70;;;;;;5028437;28;20026;-73
2021/04/24 03:11:36;;;;;;;14.70;5.93;;;6.60;68.20;;;;;;5013356;28;20382;-73
2021/04/24 03:14:03;;;;;;;16.17;6.22;;;6.70;67.90;;;;;;5013113;28;20022;-73
2021/04/24 03:16:29;;;;;;;11.43;6.30;;;6.60;68.10;;;;;;5012800;28;20022;-73
2021/04/24 03:18:55;;;;;;;10.45;6.13;;;6.40;68.50;;;;;;5013355;28;20033;-73
2021/04/24 03:21:23;;;;;;;13.27;6.03;;;6.30;69.40;;;;;;5012763;28;20030;-73
2021/04/24 03:23:49;;;;;;;13.02;5.75;;;6.40;69.30;;;;;;5013031;28;20362;-73
2021/04/24 03:26:15;;;;;;;16.20;5.97;;;6.40;68.90;;;;;;5011661;28;20026;-73
2021/04/24 03:28:41;;;;;;;13.75;5.40;;;6.50;68.50;;;;;;5012779;28;20080;-73
2021/04/24 03:31:07;;;;;;;13.13;5.47;;;6.60;68.80;;;;;;5012885;28;20544;-73
2021/04/24 03:33:33;;;;;;;8.77;4.97;;;6.70;68.30;;;;;;5012730;28;20022;-73
2021/04/24 03:35:59;;;;;;;16.85;6.40;;;6.70;67.90;;;;;;5012562;28;20022;-73
2021/04/24 03:38:25;;;;;;;19.25;6.38;;;6.20;68.80;;;;;;5012757;28;20033;-73
2021/04/24 03:40:50;;;;;;;11.85;6.18;;;5.90;70.50;;;;;;5012701;28;20018;-73
2021/04/24 03:43:16;;;;;;;25.55;6.40;;;5.70;71.30;;;;;;5012706;28;20443;-73
2021/04/24 03:45:42;;;;;;;12.82;5.50;;;5.70;71.90;;;;;;5012352;28;20025;-73
2021/04/24 03:48:08;;;;;;;14.18;6.07;;;5.80;71.60;;;;;;5012574;28;20548;-73
2021/04/24 03:50:34;;;;;;;13.75;5.57;;;6.00;72.30;;;;;;5012549;28;20033;-73
2021/04/24 03:52:59;;;;;;;14.43;6.00;;;6.00;70.70;;;;;;5012450;28;20109;-73
2021/04/24 03:55:25;;;;;;;11.63;5.47;;;5.80;71.80;;;;;;5012334;28;20033;-73
2021/04/24 03:57:54;;;;;;;16.05;5.80;;;5.90;71.40;;;;;;5012229;28;20034;-73
2021/04/24 04:00:22;;;;;;;20.65;5.90;;;5.90;70.60;;;;;;5012417;28;20156;-73
2021/04/24 04:02:56;;;;;;;14.50;6.03;;;5.90;70.70;;;;;;5012267;28;20032;-73
2021/04/24 04:05:27;;;;;;;16.88;6.60;;;5.80;70.80;;;;;;5012188;28;20033;-73
2021/04/24 04:07:53;;;;;;;13.93;5.75;;;5.60;71.40;;;;;;5012188;28;20018;-73
2021/04/24 04:10:20;;;;;;;14.55;5.28;;;5.60;72.40;;;;;;5012326;28;20028;-73
2021/04/24 04:12:47;;;;;;;15.13;5.45;;;5.80;71.40;;;;;;5011871;28;20033;-73
2021/04/24 04:15:14;;;;;;;11.48;5.63;;;5.90;71.10;;;;;;5011551;28;20062;-73
2021/04/24 04:17:41;;;;;;;18.60;5.40;;;6.10;70.70;;;;;;5012129;28;20053;-73
2021/04/24 04:20:09;;;;;;;11.73;5.63;;;6.10;70.50;;;;;;5012467;28;20390;-73
2021/04/24 04:22:35;;;;;;;15.68;5.53;;;6.00;70.10;;;;;;5012145;28;20026;-73
2021/04/24 04:25:05;;;;;;;20.67;5.25;;;6.00;70.60;;;;;;5012049;28;20034;-73
2021/04/24 04:27:31;;;;;;;12.63;6.18;;;6.00;70.40;;;;;;5012014;28;20025;-73
2021/04/24 04:29:57;;;;;;;14.70;5.70;;;6.00;70.60;;;;;;5012089;28;20544;-73
2021/04/24 04:32:22;;;;;;;12.30;5.43;;;6.00;70.70;;;;;;5012107;28;20061;-73
2021/04/24 04:34:48;;;;;;;11.98;5.72;;;6.10;70.30;;;;;;5027226;28;20393;-73
2021/04/24 04:37:14;;;;;;;14.43;5.45;;;6.30;69.70;;;;;;5011982;28;20748;-73
2021/04/24 04:39:40;;;;;;;13.82;4.85;;;6.30;69.40;;;;;;5012020;28;20101;-73
2021/04/24 04:42:07;;;;;;;13.68;6.15;;;6.30;69.40;;;;;;5011952;28;20076;-73
2021/04/24 04:44:34;;;;;;;12.80;5.75;;;6.20;69.30;;;;;;5026056;23;20049;-74
2021/04/24 04:47:00;;;;;;;12.68;4.72;;;6.30;69.60;;;;;;5011731;28;20034;-74
2021/04/24 04:49:27;;;;;;;16.17;5.18;;;6.40;69.40;;;;;;5027052;28;20026;-74
2021/04/24 04:51:52;;;;;;;15.57;5.60;;;6.60;68.70;;;;;;5011847;28;20014;-74
2021/04/24 04:54:18;;;;;;;17.85;6.57;;;6.80;68.90;;;;;;5010877;28;20393;-74
2021/04/24 04:56:44;;;;;;;9.27;5.60;;;6.50;70.00;;;;;;5026881;28;20026;-74
2021/04/24 04:59:09;;;;;;;11.32;5.97;;;6.30;71.10;;;;;;5011787;28;20041;-74
2021/04/24 05:01:35;;;;;;;11.38;5.38;;;6.00;72.60;;;;;;5011915;28;20100;-74
2021/04/24 05:04:01;;;;;;;13.07;5.28;;;6.00;73.60;;;;;;5026931;28;20030;-74
2021/04/24 05:06:26;;;;;;;13.30;5.00;;;6.00;73.70;;;;;;4994096;28;20502;-74
2021/04/24 05:08:52;;;;;;;14.48;5.80;;;6.00;74.50;;;;;;5012290;28;20029;-74
2021/04/24 05:11:18;;;;;;;16.95;4.97;;;6.00;74.70;;;;;;5012281;28;20026;-74
2021/04/24 05:13:44;;;;;;;13.55;5.20;;;6.00;74.90;;;;;;5011757;28;20065;-74
2021/04/24 05:16:09;;;;;;;13.95;5.65;;;6.20;74.60;;;;;;5011606;28;20032;-74
2021/04/24 05:18:35;;;;;;;11.07;4.90;;;6.40;72.60;;;;;;5026909;28;20112;-74
2021/04/24 05:21:03;;;;;;;9.60;5.05;;;6.70;71.60;;;;;;5011618;28;20113;-74
2021/04/24 05:23:29;;;;;;;11.38;5.13;;;6.90;71.00;;;;;;5010351;28;20080;-74
2021/04/24 05:25:55;;;;;;;10.30;5.18;;;7.00;70.40;;;;;;4996146;28;20030;-74
2021/04/24 05:28:20;;;;;;;13.52;4.53;;;7.10;70.40;;;;;;4997551;28;20072;-74
2021/04/24 05:30:46;;;;;;;17.88;6.22;;;7.20;69.70;;;;;;5015108;28;20393;-74
2021/04/24 05:33:12;;;;;;;14.60;5.63;;;7.30;69.60;;;;;;5014989;28;20048;-74
2021/04/24 05:35:38;;;;;;;14.80;7.30;;;7.40;69.80;;;;;;5013595;28;20101;-74
2021/04/24 05:38:04;;;;;;;14.75;7.20;;;7.70;69.00;;;;;;5030096;28;20417;-74
2021/04/24 05:40:30;;;;;;;14.30;5.50;;;7.90;68.30;;;;;;5013594;28;20397;-74
2021/04/24 05:42:55;;;;;;;14.52;4.70;;;7.90;68.00;;;;;;5014708;28;20101;-75
2021/04/24 05:45:21;;;;;;;13.65;4.97;;;7.90;67.60;;;;;;5014466;28;20030;-74
2021/04/24 05:47:50;;;;;;;12.15;5.35;;;7.90;67.10;;;;;;5013366;28;20049;-74
2021/04/24 05:50:20;;;;;;;9.57;4.28;;;8.00;67.10;;;;;;5013321;28;20028;-74
2021/04/24 05:52:45;;;;;;;15.15;5.50;;;8.30;66.40;;;;;;5014698;28;20540;-74
2021/04/24 05:55:12;;;;;;;14.55;5.13;;;8.40;65.60;;;;;;5014787;28;20035;-75
2021/04/24 05:57:39;;;;;;;9.80;4.80;;;8.50;65.10;;;;;;5013239;28;20317;-75
2021/04/24 06:00:14;;;;;;;10.07;4.38;;;8.60;65.20;;;;;;5029511;28;20121;-74
2021/04/24 06:02:40;;;;;;;15.20;4.35;;;8.70;64.60;;;;;;5013178;28;20018;-75
2021/04/24 06:05:08;;;;;;;14.18;4.65;;;8.80;64.70;;;;;;4995339;28;20033;-74
2021/04/24 06:07:35;;;;;;;9.45;3.80;;;8.90;63.90;;;;;;4996131;28;20525;-74
2021/04/24 06:10:00;;;;;;;12.02;4.32;;;8.80;63.60;;;;;;5014126;28;20417;-74
2021/04/24 06:12:26;;;;;;;14.45;4.20;;;8.90;64.20;;;;;;5012877;28;20025;-74
2021/04/24 06:14:52;;;;;;;15.32;3.63;;;8.90;63.50;;;;;;4996452;28;20076;-74
2021/04/24 06:17:18;;;;;;;8.05;4.53;;;9.00;64.20;;;;;;5013683;28;20022;-74
2021/04/24 06:19:43;;;;;;;12.07;4.78;;;9.00;64.90;;;;;;5012844;28;20029;-74
2021/04/24 06:22:09;;;;;;;20.90;4.65;;;9.20;65.60;;;;;;5013155;28;20037;-74
2021/04/24 06:24:35;;;;;;;12.68;4.13;;;9.40;66.80;;;;;;5014039;28;20379;-74
2021/04/24 06:27:01;;;;;;;10.50;3.95;;;9.50;66.30;;;;;;4996270;28;20025;-75
2021/04/24 06:29:27;;;;;;;29.42;10.80;;;9.70;72.10;;;;;;5013649;28;20383;-76
2021/04/24 06:31:53;;;;;;;29.80;12.85;;;9.90;65.10;;;;;;5012714;28;20482;-76
2021/04/24 06:34:18;;;;;;;20.42;7.82;;;10.00;65.10;;;;;;5013680;28;20026;-74
2021/04/24 06:36:44;;;;;;;14.95;7.80;;;10.10;64.90;;;;;;5013056;28;20021;-74
2021/04/24 06:39:10;;;;;;;19.80;8.05;;;10.30;64.50;;;;;;4996195;28;20065;-74
2021/04/24 06:41:35;;;;;;;18.90;7.88;;;10.20;64.40;;;;;;5013666;28;20053;-74
2021/04/24 06:44:02;;;;;;;19.92;8.07;;;10.20;64.20;;;;;;5013244;28;20030;-75
2021/04/24 06:46:28;;;;;;;10.98;5.35;;;10.30;64.20;;;;;;4996010;28;20437;-76
2021/04/24 06:48:54;;;;;;;26.58;10.00;;;10.50;62.30;;;;;;5013599;28;20033;-75
2021/04/24 06:51:20;;;;;;;18.30;9.05;;;10.70;62.80;;;;;;4996181;28;20030;-74
2021/04/24 06:53:46;;;;;;;13.02;5.70;;;10.80;60.40;;;;;;5012110;28;20022;-74
2021/04/24 06:56:11;;;;;;;8.43;5.45;;;11.00;59.90;;;;;;5013320;28;20029;-74
2021/04/24 06:58:37;;;;;;;15.65;5.38;;;11.20;59.80;;;;;;5011907;28;20422;-75
2021/04/24 07:01:03;;;;;;;11.43;5.15;;;11.40;57.30;;;;;;5013502;28;20101;-74
2021/04/24 07:03:29;;;;;;;13.32;6.88;;;11.50;56.50;;;;;;5011989;28;20105;-74
2021/04/24 07:05:55;;;;;;;20.42;5.20;;;11.70;55.50;;;;;;5013136;28;20096;-74
2021/04/24 07:08:20;;;;;;;11.65;5.10;;;11.70;55.00;;;;;;5011988;28;20022;-74
2021/04/24 07:10:46;;;;;;;13.75;5.68;;;11.80;54.90;;;;;;5011979;28;20022;-74
2021/04/24 07:13:13;;;;;;;9.95;5.65;;;11.90;54.00;;;;;;5013042;28;20540;-74
2021/04/24 07:15:39;;;;;;;17.13;6.13;;;11.90;52.20;;;;;;5011735;28;20033;-74
2021/04/24 07:18:05;;;;;;;10.25;5.85;;;11.90;53.70;;;;;;5011772;28;20040;-74
2021/04/24 07:20:31;;;;;;;15.98;5.78;;;12.00;54.30;;;;;;5012897;28;20022;-73
2021/04/24 07:22:57;;;;;;;18.55;5.70;;;12.20;54.10;;;;;;5012797;28;20047;-74
2021/04/24 07:25:22;;;;;;;12.85;5.30;;;12.30;54.20;;;;;;4995084;28;20033;-74
2021/04/24 07:27:48;;;;;;;26.02;6.78;;;12.20;52.90;;;;;;5012643;28;20026;-74
2021/04/24 07:30:14;;;;;;;16.08;6.20;;;12.40;52.50;;;;;;5012888;28;20033;-74
2021/04/24 07:32:40;;;;;;;11.00;5.80;;;12.30;52.70;;;;;;5012650;28;20041;-74
2021/04/24 07:35:08;;;;;;;14.63;6.97;;;12.40;53.10;;;;;;5012751;28;20473;-74
2021/04/24 15:15:51;;;;;;;19.90;11.23;;;20.00;27.50;;;;;;5089580;27;20389;-72
2021/04/24 15:18:17;;;;;;;12.80;6.90;;;20.00;28.10;;;;;;5089495;28;20033;-73
2021/04/24 15:20:43;;;;;;;11.73;6.22;;;20.20;27.40;;;;;;5088100;28;20028;-73
2021/04/24 15:23:09;;;;;;;14.77;7.68;;;20.00;27.10;;;;;;5089506;28;20099;-72
2021/04/24 15:25:36;;;;;;;16.33;8.20;;;19.90;27.40;;;;;;5089379;28;20491;-72
2021/04/24 15:28:04;;;;;;;16.77;7.20;;;19.90;28.10;;;;;;5089327;28;20028;-72
2021/04/24 15:30:30;;;;;;;12.43;7.43;;;20.00;28.50;;;;;;5089291;28;20096;-72
2021/04/24 15:32:56;;;;;;;12.82;7.43;;;19.80;28.40;;;;;;5089149;28;20100;-72
2021/04/24 15:35:22;;;;;;;14.90;7.40;;;19.90;28.40;;;;;;5089145;28;20545;-71
2021/04/24 15:37:47;;;;;;;14.07;7.80;;;19.90;27.60;;;;;;5089209;28;20063;-72
2021/04/24 15:40:15;;;;;;;39.65;21.90;;;19.90;27.90;;;;;;5089088;28;20025;-72
2021/04/24 15:42:41;;;;;;;12.02;7.13;;;20.00;28.10;;;;;;5087994;28;20028;-72
2021/04/24 15:45:11;;;;;;;13.02;6.75;;;19.90;27.70;;;;;;5089117;28;20105;-72
2021/04/24 15:47:38;;;;;;;11.60;6.35;;;20.00;27.40;;;;;;5089008;28;20028;-72
2021/04/24 15:50:05;;;;;;;16.02;8.35;;;20.00;27.50;;;;;;5088955;28;20111;-72
2021/04/24 15:52:31;;;;;;;13.52;8.40;;;20.10;28.30;;;;;;5088931;28;20039;-72
2021/04/24 15:54:56;;;;;;;18.05;9.43;;;20.00;28.50;;;;;;5087474;28;20032;-72
2021/04/24 15:57:22;;;;;;;15.63;7.80;;;20.00;28.90;;;;;;5070639;28;20020;-72
2021/04/24 15:59:48;;;;;;;15.38;9.05;;;19.90;28.90;;;;;;5070520;28;20360;-72
2021/04/24 16:02:14;;;;;;;14.02;8.70;;;19.70;29.20;;;;;;5087302;28;20035;-72
2021/04/24 16:04:41;;;;;;;14.10;8.50;;;19.60;29.10;;;;;;5088735;28;20036;-72
2021/04/24 16:07:07;;;;;;;14.38;9.13;;;19.60;29.30;;;;;;5070408;28;20032;-73
2021/04/24 16:09:34;;;;;;;21.00;9.15;;;19.60;29.30;;;;;;5088397;28;20419;-72
2021/04/24 16:12:00;;;;;;;14.00;8.38;;;19.60;29.90;;;;;;5088485;28;20059;-72
2021/04/24 16:14:27;;;;;;;13.23;8.10;;;19.60;29.20;;;;;;5088229;28;20047;-71
2021/04/24 16:16:55;;;;;;;17.23;8.48;;;19.60;29.10;;;;;;5088192;28;20032;-72
2021/04/24 16:19:21;;;;;;;15.35;8.07;;;19.60;29.80;;;;;;5087459;28;20028;-72
2021/04/24 16:21:47;;;;;;;16.33;9.70;;;19.60;29.80;;;;;;5086552;28;20529;-72
2021/04/24 16:24:12;;;;;;;21.90;9.68;;;19.50;29.80;;;;;;5088272;28;20035;-72
2021/04/24 16:26:38;;;;;;;12.85;9.15;;;19.50;29.90;;;;;;5077838;28;20123;-72
2021/04/24 16:29:04;;;;;;;15.02;9.93;;;19.30;30.00;;;;;;5073135;28;20521;-72
2021/04/24 16:31:31;;;;;;;13.73;8.77;;;19.20;30.50;;;;;;5074531;28;20103;-72
2021/04/24 16:33:56;;;;;;;14.70;7.25;;;19.20;30.20;;;;;;5074521;28;20074;-72
2021/04/24 16:36:22;;;;;;;18.00;8.38;;;19.30;29.90;;;;;;5074555;28;20028;-72
2021/04/24 16:38:48;;;;;;;15.23;8.40;;;19.40;29.60;;;;;;5073291;28;20538;-73
2021/04/24 16:41:14;;;;;;;15.50;9.35;;;19.20;29.20;;;;;;5072935;28;20025;-72
2021/04/24 16:43:40;;;;;;;17.73;9.18;;;19.20;29.20;;;;;;5074493;28;20028;-72
2021/04/24 16:46:06;;;;;;;14.30;9.02;;;19.10;29.70;;;;;;5073293;28;20017;-72
2021/04/24 16:48:32;;;;;;;17.33;10.88;;;18.90;29.20;;;;;;5072864;28;20082;-72
2021/04/24 16:50:58;;;;;;;23.27;10.25;;;18.80;29.90;;;;;;5074444;28;20024;-72
2021/04/24 16:53:24;;;;;;;14.02;8.00;;;18.80;30.30;;;;;;5074397;28;20095;-72
2021/04/24 16:55:50;;;;;;;26.45;8.35;;;18.90;30.40;;;;;;5072778;28;20435;-72
2021/04/24 16:58:15;;;;;;;15.82;7.88;;;18.90;30.00;;;;;;5073032;28;20021;-72
2021/04/24 17:00:41;;;;;;;13.07;8.52;;;18.80;29.80;;;;;;5074229;28;20118;-72
2021/04/24 17:03:09;;;;;;;17.95;8.52;;;18.80;29.60;;;;;;5073220;28;20024;-71
2021/04/24 17:05:35;;;;;;;16.05;7.53;;;18.70;29.60;;;;;;5055307;22;20034;-71
2021/04/24 17:08:01;;;;;;;10.00;7.22;;;18.70;28.90;;;;;;5033860;28;20030;-71
2021/04/24 17:10:27;;;;;;;12.05;7.35;;;18.70;29.20;;;;;;5033960;28;20076;-72
2021/04/24 17:12:54;;;;;;;10.80;7.03;;;18.70;29.60;;;;;;5034096;28;20449;-71
2021/04/24 17:15:20;;;;;;;17.35;9.55;;;18.70;29.70;;;;;;5033565;28;20048;-72
2021/04/24 17:17:46;;;;;;;15.85;8.68;;;18.60;29.40;;;;;;5033815;28;20017;-71
2021/04/24 17:20:13;;;;;;;12.52;7.57;;;18.70;29.70;;;;;;5033661;28;20025;-72
2021/04/24 17:22:39;;;;;;;13.38;8.40;;;18.60;30.40;;;;;;5033609;28;20392;-71
2021/04/24 17:25:06;;;;;;;14.07;7.85;;;18.40;31.30;;;;;;5033595;28;20507;-71
2021/04/24 17:27:31;;;;;;;12.20;8.63;;;18.30;31.80;;;;;;5033355;28;20056;-72
2021/04/24 17:29:57;;;;;;;19.30;9.10;;;18.20;32.00;;;;;;5033455;28;20033;-72
2021/04/24 17:32:23;;;;;;;15.63;9.30;;;17.90;32.20;;;;;;5033471;28;20105;-71
2021/04/24 17:34:49;;;;;;;13.60;8.93;;;17.60;33.10;;;;;;5033078;28;20056;-71
2021/04/24 17:37:15;;;;;;;16.58;9.45;;;17.50;33.50;;;;;;5014479;28;20075;-71
2021/04/24 17:39:41;;;;;;;17.13;9.48;;;17.50;33.70;;;;;;5033254;28;20071;-71
2021/04/24 17:42:07;;;;;;;21.15;10.25;;;17.30;34.20;;;;;;5033159;28;20021;-71
2021/04/24 17:44:33;;;;;;;19.52;9.35;;;17.30;34.50;;;;;;5032027;28;20029;-71
2021/04/24 17:46:59;;;;;;;17.00;8.55;;;17.40;34.90;;;;;;5033085;28;20396;-71
2021/04/24 17:49:25;;;;;;;12.93;8.43;;;17.50;34.80;;;;;;5033123;28;20029;-72
2021/04/24 17:51:54;;;;;;;16.75;8.45;;;17.50;34.70;;;;;;5033003;28;20033;-71
2021/04/24 17:54:19;;;;;;;15.85;8.88;;;17.40;35.10;;;;;;5031533;28;20374;-72
2021/04/24 17:56:45;;;;;;;18.90;8.27;;;17.40;35.20;;;;;;5034504;28;20079;-71
2021/04/24 17:59:11;;;;;;;13.02;6.82;;;17.40;34.90;;;;;;5043901;28;20090;-72
2021/04/24 18:01:37;;;;;;;16.60;9.15;;;17.10;36.00;;;;;;5042316;28;20056;-71
2021/04/24 18:04:03;;;;;;;20.60;11.23;;;17.00;36.10;;;;;;5032630;28;20037;-74
2021/04/24 18:06:29;;;;;;;23.65;10.73;;;16.70;37.00;;;;;;5048386;28;20040;-74
2021/04/24 18:08:55;;;;;;;21.92;9.88;;;16.60;36.80;;;;;;5052714;28;20071;-74
2021/04/24 18:11:21;;;;;;;17.10;10.15;;;16.50;36.60;;;;;;5051316;28;20138;-74
2021/04/24 18:13:47;;;;;;;17.67;9.25;;;16.70;36.50;;;;;;5046057;28;20029;-74
2021/04/24 18:16:13;;;;;;;20.15;10.30;;;16.70;36.40;;;;;;5032518;28;20025;-74
2021/04/24 18:18:39;;;;;;;14.77;9.20;;;16.70;37.20;;;;;;5032564;28;20026;-75
2021/04/24 18:21:06;;;;;;;15.57;10.30;;;16.70;36.90;;;;;;5029685;28;20490;-75
2021/04/24 18:23:32;;;;;;;19.33;9.27;;;16.70;36.80;;;;;;5032541;28;20017;-75
2021/04/24 18:25:58;;;;;;;14.90;9.43;;;16.80;36.80;;;;;;5030996;28;20112;-75
2021/04/24 18:28:24;;;;;;;13.02;8.43;;;16.90;37.10;;;;;;5032354;28;20096;-75
2021/04/24 18:30:50;;;;;;;17.83;9.60;;;17.00;36.80;;;;;;5037260;28;20025;-75
2021/04/24 18:33:16;;;;;;;20.73;8.95;;;17.00;37.00;;;;;;5052285;28;20023;-75
2021/04/24 18:35:42;;;;;;;17.83;9.25;;;17.10;37.00;;;;;;5050607;28;20024;-75
2021/04/24 18:38:08;;;;;;;16.88;9.27;;;17.00;36.80;;;;;;5050886;28;20024;-75
2021/04/24 18:40:34;;;;;;;14.40;8.73;;;16.70;38.80;;;;;;5052122;28;20028;-75
2021/04/24 18:43:01;;;;;;;13.98;8.68;;;16.20;40.50;;;;;;5052040;28;20025;-75
2021/04/24 18:45:31;;;;;;;20.80;9.73;;;16.00;41.10;;;;;;5050676;28;20404;-75
2021/04/24 18:47:59;;;;;;;14.13;9.60;;;15.90;41.70;;;;;;5050383;28;20439;-74
2021/04/24 18:50:25;;;;;;;18.48;9.68;;;15.90;41.60;;;;;;5033952;28;20048;-75
2021/04/24 18:52:52;;;;;;;18.33;11.10;;;15.80;41.70;;;;;;5051942;28;20079;-75
2021/04/24 18:55:21;;;;;;;15.15;8.52;;;15.70;42.00;;;;;;5051714;28;20040;-75
2021/04/24 18:57:48;;;;;;;18.00;9.75;;;15.70;42.60;;;;;;5051749;28;20104;-75
2021/04/24 19:00:20;;;;;;;16.00;9.68;;;15.40;42.60;;;;;;5050577;28;20036;-75
2021/04/24 19:02:47;;;;;;;19.20;10.23;;;15.50;42.70;;;;;;5050538;28;20025;-75
2021/04/24 19:05:14;;;;;;;15.85;9.88;;;15.30;42.80;;;;;;5044528;28;20026;-75
2021/04/24 19:07:40;;;;;;;16.95;10.20;;;15.20;43.20;;;;;;5031743;28;20432;-75
2021/04/24 19:10:33;;;;;;;18.02;11.02;;;15.20;43.30;;;;;;5030533;28;20033;-75
2021/04/24 19:12:55;;;;;;;19.65;10.35;;;15.20;44.00;;;;;;5031435;28;20025;-75
2021/04/24 19:15:20;;;;;;;20.85;9.82;;;15.10;45.10;;;;;;5030514;28;20032;-74
2021/04/24 19:17:46;;;;;;;16.77;9.75;;;14.90;46.00;;;;;;5030290;28;20022;-75
2021/04/24 19:20:13;;;;;;;25.55;10.55;;;14.50;48.30;;;;;;5030120;28;20022;-75
2021/04/24 19:22:39;;;;;;;19.20;9.57;;;14.40;49.10;;;;;;5030530;28;20400;-75
2021/04/24 19:25:05;;;;;;;20.65;10.80;;;14.40;48.80;;;;;;5014038;28;20021;-75
2021/04/24 19:27:31;;;;;;;28.63;11.20;;;14.50;48.70;;;;;;5031480;28;20108;-75
2021/04/24 19:29:57;;;;;;;21.35;11.73;;;14.60;48.70;;;;;;5031672;28;20029;-75
2021/04/24 19:32:23;;;;;;;21.80;12.55;;;14.60;48.30;;;;;;5030267;28;20028;-75
2021/04/24 19:34:49;;;;;;;23.63;13.02;;;14.70;48.10;;;;;;5013869;28;20033;-75
2021/04/24 19:37:15;;;;;;;16.80;10.48;;;14.70;47.60;;;;;;5030084;28;20049;-74
2021/04/24 19:39:41;;;;;;;19.55;11.15;;;14.50;48.40;;;;;;5030170;28;20030;-75
2021/04/24 19:42:07;;;;;;;14.38;9.00;;;13.90;50.70;;;;;;5031606;28;20026;-75
2021/04/24 19:44:33;;;;;;;17.95;10.75;;;13.20;53.90;;;;;;5031597;28;20018;-74
2021/04/24 19:47:01;;;;;;;18.63;11.23;;;12.50;56.70;;;;;;5031450;28;20366;-74
2021/04/24 19:49:28;;;;;;;18.70;10.05;;;12.40;57.50;;;;;;5030009;28;20056;-74
2021/04/24 19:51:54;;;;;;;22.80;9.95;;;12.40;57.00;;;;;;5013752;28;20061;-75
2021/04/24 19:54:20;;;;;;;16.80;10.30;;;12.50;56.00;;;;;;5031281;28;20539;-75
2021/04/24 19:56:45;;;;;;;21.45;9.60;;;12.80;55.80;;;;;;5031221;28;20056;-75
2021/04/24 19:59:11;;;;;;;16.83;10.52;;;13.00;54.50;;;;;;5030142;28;20022;-75
2021/04/24 20:01:37;;;;;;;17.95;10.30;;;13.10;53.20;;;;;;5033298;28;20044;-75
2021/04/24 20:04:06;;;;;;;18.05;11.35;;;13.30;52.90;;;;;;5033756;28;20473;-75
2021/04/24 20:06:36;;;;;;;18.67;10.40;;;13.30;52.90;;;;;;5034991;28;20393;-75
2021/04/24 20:09:04;;;;;;;22.52;10.38;;;13.20;53.00;;;;;;5035056;28;20087;-75
2021/04/24 20:11:29;;;;;;;16.98;11.18;;;13.10;53.30;;;;;;5017217;28;20025;-74
2021/04/24 20:13:55;;;;;;;21.55;10.40;;;12.80;54.80;;;;;;5034847;28;20030;-75
2021/04/24 20:16:22;;;;;;;29.30;9.77;;;12.40;56.30;;;;;;5033411;28;20033;-75